createdAt,value
2018-06-16T18:08:13.500Z,49.80
2018-06-16T18:13:49.648Z,52.60
2018-06-16T18:17:01.976Z,53.70
2018-06-16T18:19:45.883Z,54.20
2018-06-16T18:25:30.385Z,53.60
2018-06-16T18:39:06.330Z,55.20
2018-06-16T18:41:35.549Z,61.00
2018-06-16T18:44:04.495Z,63.00
2018-06-16T18:46:34.054Z,64.70
2018-06-16T18:52:14.753Z,67.20
2018-06-16T18:54:43.362Z,69.10
2018-06-16T18:57:12.653Z,69.80
2018-06-16T18:59:41.336Z,71.20
2018-06-16T19:02:10.143Z,70.60
2018-06-16T19:04:38.828Z,70.90
2018-06-16T19:07:08.126Z,71.30
2018-06-16T19:09:36.819Z,72.40
2018-06-16T19:12:05.686Z,72.90
2018-06-16T19:14:35.468Z,72.80
2018-06-16T19:17:05.119Z,73.20
2018-06-16T19:19:33.710Z,73.80
2018-06-16T19:22:02.225Z,73.90
2018-06-16T19:24:30.782Z,73.90
2018-06-16T19:26:59.280Z,74.10
2018-06-16T19:29:28.535Z,74.70
2018-06-16T19:31:57.154Z,74.70
2018-06-16T19:34:25.808Z,74.90
2018-06-16T19:36:55.089Z,75.20
2018-06-16T19:39:23.676Z,75.30
2018-06-16T19:41:52.253Z,75.50
2018-06-16T19:44:20.772Z,75.60
2018-06-16T19:46:49.383Z,75.60
2018-06-16T19:49:17.904Z,75.70
2018-06-16T19:51:46.464Z,76.00
2018-06-16T19:54:14.930Z,76.40
2018-06-16T19:56:43.434Z,76.30
2018-06-16T19:59:11.932Z,75.70
2018-06-16T20:01:40.665Z,75.80
2018-06-16T20:04:09.218Z,76.20
2018-06-16T20:06:37.834Z,76.40
2018-06-16T20:09:07.194Z,76.50
2018-06-16T20:11:35.812Z,76.90
2018-06-16T20:14:04.328Z,77.10
2018-06-16T20:16:32.955Z,77.30
2018-06-16T20:19:01.757Z,77.20
2018-06-16T20:21:30.235Z,77.10
2018-06-16T20:23:58.807Z,77.20
2018-06-16T20:26:27.488Z,77.20
2018-06-16T20:28:56.064Z,77.40
2018-06-16T20:31:24.682Z,77.50
2018-06-16T20:33:56.872Z,77.60
2018-06-16T20:36:28.033Z,77.70
2018-06-16T20:38:58.915Z,77.80
2018-06-16T20:41:28.728Z,78.00
2018-06-16T20:43:58.721Z,78.70
2018-06-16T20:46:29.745Z,79.00
2018-06-16T21:00:25.184Z,81.20
2018-06-16T21:02:53.771Z,81.70
2018-06-16T21:05:23.028Z,82.50
2018-06-16T21:07:51.557Z,82.80
2018-06-16T21:10:20.093Z,82.70
2018-06-16T21:12:48.607Z,82.70
2018-06-16T21:15:17.184Z,83.10
2018-06-16T21:17:46.057Z,83.20
2018-06-16T21:20:18.614Z,83.40
2018-06-16T21:22:47.968Z,83.70
2018-06-16T21:25:16.534Z,83.30
2018-06-16T21:27:52.165Z,83.10
2018-06-16T21:30:20.739Z,83.70
2018-06-16T21:32:50.065Z,83.80
2018-06-16T21:35:18.611Z,83.80
2018-06-16T21:37:47.483Z,84.40
2018-06-16T21:40:16.059Z,83.40
2018-06-16T21:42:44.588Z,83.10
2018-06-16T21:45:13.165Z,83.10
2018-06-16T21:47:43.009Z,83.40
2018-06-16T21:50:21.383Z,84.30
2018-06-16T21:52:50.109Z,84.00
2018-06-16T21:58:04.627Z,84.50
2018-06-16T22:00:35.216Z,85.00
2018-06-16T22:09:07.837Z,81.80
2018-06-16T22:11:37.259Z,81.80
2018-06-16T22:14:07.059Z,81.90
2018-06-16T22:16:35.721Z,81.10
2018-06-16T22:19:04.500Z,80.40
2018-06-16T22:21:38.625Z,80.70
2018-06-16T22:24:07.360Z,80.40
2018-06-16T22:33:32.710Z,81.40
2018-06-16T22:36:09.440Z,81.40
2018-06-16T22:38:45.659Z,82.20
2018-06-16T22:41:44.577Z,82.30
2018-06-16T22:44:15.179Z,82.40
2018-06-16T22:46:45.566Z,82.30
2018-06-16T22:49:14.387Z,82.30
2018-06-16T22:51:43.436Z,83.10
2018-06-16T22:54:11.975Z,83.70
2018-06-16T22:56:41.047Z,84.60
2018-06-16T22:59:10.129Z,84.60
2018-06-16T23:01:39.215Z,84.70
2018-06-16T23:04:07.773Z,84.50
2018-06-16T23:06:36.268Z,84.70
2018-06-16T23:09:07.400Z,85.10
2018-06-16T23:11:36.011Z,84.80
2018-06-16T23:14:04.637Z,84.60
2018-06-16T23:16:33.880Z,84.80
2018-06-16T23:19:02.464Z,85.50
2018-06-16T23:21:30.973Z,85.80
2018-06-16T23:23:59.674Z,85.80
2018-06-16T23:26:28.353Z,85.80
2018-06-16T23:28:56.915Z,85.60
2018-06-16T23:31:25.554Z,85.30
2018-06-16T23:33:54.122Z,85.10
2018-06-16T23:36:22.605Z,85.20
2018-06-16T23:38:51.344Z,84.40
2018-06-16T23:41:19.897Z,85.00
2018-06-16T23:43:48.444Z,84.90
2018-06-16T23:46:16.985Z,84.30
2018-06-16T23:48:50.013Z,84.50
2018-06-16T23:51:18.770Z,84.40
2018-06-16T23:53:47.320Z,84.60
2018-06-16T23:56:16.438Z,84.90
2018-06-16T23:58:45.980Z,85.50
